createdAt,value
2022-11-13T00:02:49.122Z,43.77
2022-11-13T00:06:53.634Z,72.13
2022-11-13T00:11:01.858Z,87.10
2022-11-13T00:15:03.405Z,56.13
2022-11-13T00:19:04.407Z,52.20
2022-11-13T00:23:05.392Z,49.87
2022-11-13T00:27:06.624Z,47.17
2022-11-13T00:31:08.891Z,52.30
2022-11-13T00:35:09.789Z,53.20
2022-11-13T00:39:10.803Z,51.50
2022-11-13T00:43:11.901Z,31.97
2022-11-13T00:47:13.069Z,32.03
2022-11-13T00:51:14.349Z,32.53
2022-11-13T00:55:15.514Z,31.67
2022-11-13T00:59:16.474Z,39.03
2022-11-13T01:03:17.764Z,43.40
2022-11-13T01:07:18.813Z,41.27
2022-11-13T01:11:22.749Z,31.57
2022-11-13T01:15:24.060Z,24.17
2022-11-13T01:19:25.253Z,22.93
2022-11-13T01:23:26.418Z,22.10
2022-11-13T01:27:27.516Z,24.20
2022-11-13T01:31:30.626Z,32.33
2022-11-13T01:35:31.620Z,33.37
2022-11-13T01:39:32.767Z,35.00
2022-11-13T01:43:36.472Z,54.13
2022-11-13T01:47:37.762Z,57.53
2022-11-13T01:51:42.216Z,47.53
2022-11-13T01:55:43.406Z,41.83
2022-11-13T01:59:48.381Z,31.63
2022-11-13T02:03:49.555Z,30.83
2022-11-13T02:07:50.981Z,33.27
2022-11-13T02:11:53.404Z,42.47
2022-11-13T02:15:55.371Z,42.23
2022-11-13T02:19:59.780Z,33.63
2022-11-13T02:24:17.535Z,34.13
2022-11-13T02:28:18.699Z,37.03
2022-11-13T02:32:19.955Z,42.87
2022-11-13T02:36:24.404Z,35.70
2022-11-13T02:40:26.314Z,29.63
2022-11-13T02:44:27.484Z,27.67
2022-11-13T02:48:29.094Z,25.17
2022-11-13T02:52:30.775Z,20.92
2022-11-13T02:56:31.914Z,17.53
2022-11-13T03:00:33.405Z,17.97
2022-11-13T03:05:05.199Z,17.80
2022-11-13T03:08:38.156Z,17.10
2022-11-13T03:12:40.071Z,16.63
2022-11-13T03:16:41.186Z,27.03
2022-11-13T03:20:43.143Z,24.53
2022-11-13T03:24:44.169Z,27.40
2022-11-13T03:28:45.926Z,23.13
2022-11-13T03:32:47.162Z,23.17
2022-11-13T03:36:48.226Z,26.07
2022-11-13T03:40:49.981Z,22.27
2022-11-13T03:44:51.022Z,19.07
2022-11-13T03:48:52.200Z,17.60
2022-11-13T03:52:53.354Z,17.17
2022-11-13T03:56:54.644Z,17.00
2022-11-13T04:00:56.080Z,16.80
2022-11-13T04:04:57.153Z,18.20
2022-11-13T04:08:58.221Z,18.83
2022-11-13T04:12:59.437Z,23.23
2022-11-13T04:17:00.565Z,16.47
2022-11-13T04:21:03.775Z,17.37
2022-11-13T04:25:05.761Z,18.10
2022-11-13T04:29:06.755Z,16.73
2022-11-13T04:33:07.931Z,19.07
2022-11-13T04:37:09.092Z,17.60
2022-11-13T04:41:30.799Z,17.53
2022-11-13T04:45:32.007Z,17.80
2022-11-13T04:49:33.409Z,17.10
2022-11-13T04:53:34.603Z,17.37
2022-11-13T04:57:35.953Z,16.37
2022-11-13T05:01:37.288Z,15.47
2022-11-13T05:05:38.295Z,17.90
2022-11-13T05:09:39.269Z,16.77
2022-11-13T05:13:40.362Z,15.70
2022-11-13T05:17:41.385Z,15.83
2022-11-13T05:21:44.070Z,14.27
2022-11-13T05:25:45.238Z,14.63
2022-11-13T05:29:46.428Z,20.72
2022-11-13T05:33:48.697Z,16.47
2022-11-13T05:37:49.946Z,17.13
2022-11-13T05:41:51.125Z,14.63
2022-11-13T05:46:07.062Z,14.13
2022-11-13T05:50:09.143Z,15.00
2022-11-13T05:54:10.916Z,15.93
2022-11-13T05:58:12.282Z,16.73
2022-11-13T06:02:13.591Z,16.00
2022-11-13T06:06:17.060Z,16.77
2022-11-13T06:10:18.135Z,15.50
2022-11-13T06:14:19.257Z,15.43
2022-11-13T06:18:26.519Z,14.67
2022-11-13T06:22:26.626Z,12.97
2022-11-13T06:26:31.211Z,12.60
2022-11-13T06:30:32.429Z,14.80
2022-11-13T06:34:33.381Z,13.93
2022-11-13T06:38:37.411Z,15.83
2022-11-13T06:42:38.856Z,14.67
2022-11-13T06:46:39.817Z,13.33
2022-11-13T06:50:45.671Z,11.80
2022-11-13T06:54:44.054Z,13.43
2022-11-13T06:58:45.266Z,12.13
2022-11-13T07:02:49.618Z,13.13
2022-11-13T07:06:50.665Z,13.27
2022-11-13T07:10:55.685Z,14.23
2022-11-13T07:14:56.787Z,15.07
2022-11-13T07:18:57.730Z,13.90
2022-11-13T07:23:00.481Z,13.50
2022-11-13T07:27:01.438Z,15.20
2022-11-13T07:31:02.522Z,17.90
2022-11-13T07:35:04.336Z,19.30
2022-11-13T07:39:05.288Z,18.60
2022-11-13T07:43:06.483Z,19.10
2022-11-13T07:47:07.638Z,18.27
2022-11-13T07:51:08.615Z,17.20
2022-11-13T07:55:09.823Z,17.97
2022-11-13T07:59:11.013Z,17.43
2022-11-13T08:03:15.085Z,16.47
2022-11-13T08:07:16.501Z,14.13
2022-11-13T08:11:17.762Z,25.90
2022-11-13T08:15:18.744Z,29.73
2022-11-13T08:19:19.951Z,27.50
2022-11-13T08:23:21.423Z,25.23
2022-11-13T08:27:23.196Z,28.43
2022-11-13T08:31:24.316Z,28.00
2022-11-13T08:35:29.186Z,24.70
2022-11-13T08:39:28.286Z,24.40
2022-11-13T08:43:29.482Z,26.57
2022-11-13T08:47:30.521Z,25.30
2022-11-13T08:51:31.539Z,23.60
2022-11-13T08:55:33.453Z,23.47
2022-11-13T08:59:34.742Z,23.03
2022-11-13T09:03:36.358Z,21.50
2022-11-13T09:07:37.732Z,22.40
2022-11-13T09:11:38.914Z,23.40
2022-11-13T09:15:40.157Z,31.60
2022-11-13T09:19:41.277Z,28.27
2022-11-13T09:23:42.428Z,29.00
2022-11-13T09:27:43.571Z,32.87
2022-11-13T09:31:45.096Z,33.23
2022-11-13T09:35:46.238Z,34.30
2022-11-13T09:39:47.352Z,34.33
2022-11-13T09:43:56.591Z,28.40
2022-11-13T09:47:57.537Z,24.97
2022-11-13T09:52:06.362Z,22.40
2022-11-13T09:56:08.952Z,18.07
2022-11-13T10:00:18.253Z,17.30
2022-11-13T10:04:23.108Z,17.83
2022-11-13T10:08:30.781Z,18.07
2022-11-13T10:12:33.336Z,18.27
2022-11-13T10:16:40.877Z,17.93
2022-11-13T10:20:56.428Z,13.83
2022-11-13T10:25:01.265Z,8.27
2022-11-13T10:29:12.151Z,6.50
2022-11-13T10:33:19.253Z,6.20
2022-11-13T10:37:29.636Z,4.57
2022-11-13T10:41:30.906Z,6.23
2022-11-13T10:45:32.664Z,4.30
2022-11-13T10:49:33.664Z,3.23
2022-11-13T10:53:40.521Z,3.33
2022-11-13T10:57:43.110Z,4.10
2022-11-13T11:01:46.583Z,4.43
2022-11-13T11:05:59.435Z,3.10
2022-11-13T11:10:01.310Z,3.40
2022-11-13T11:14:18.508Z,2.97
2022-11-13T11:18:55.555Z,4.03
2022-11-13T11:23:24.683Z,3.20
2022-11-13T11:27:29.448Z,3.00
2022-11-13T11:31:44.009Z,2.50
2022-11-13T11:35:51.594Z,5.20
2022-11-13T11:40:11.209Z,2.17
2022-11-13T11:44:19.246Z,4.30
2022-11-13T11:48:24.050Z,2.80
2022-11-13T11:52:31.803Z,6.50
2022-11-13T11:56:54.877Z,4.10
2022-11-13T12:01:02.953Z,4.40
2022-11-13T12:05:24.589Z,3.13
2022-11-13T12:09:39.081Z,3.00
2022-11-13T12:13:56.240Z,3.33
2022-11-13T12:18:28.510Z,2.27
2022-11-13T12:22:41.540Z,2.93
2022-11-13T12:27:07.053Z,2.00
2022-11-13T12:31:17.703Z,2.40
2022-11-13T12:35:21.363Z,2.97
2022-11-13T12:39:57.659Z,1.83
2022-11-13T12:44:02.680Z,2.30
2022-11-13T12:48:18.237Z,2.00
2022-11-13T12:52:23.552Z,3.60
2022-11-13T12:56:28.373Z,5.33
2022-11-13T13:00:30.660Z,2.70
2022-11-13T13:04:52.467Z,5.47
2022-11-13T13:09:16.694Z,6.17
2022-11-13T13:13:24.812Z,3.57
2022-11-13T13:17:25.972Z,3.97
2022-11-13T13:21:27.090Z,3.47
2022-11-13T13:25:34.503Z,3.40
2022-11-13T13:29:39.297Z,3.37
2022-11-13T13:34:10.172Z,2.60
2022-11-13T13:38:33.334Z,2.83
2022-11-13T13:43:00.041Z,5.27
2022-11-13T13:47:05.157Z,4.70
2022-11-13T13:51:12.948Z,3.83
2022-11-13T13:55:30.020Z,3.60
2022-11-13T13:59:35.637Z,3.50
2022-11-13T14:03:36.530Z,3.87
2022-11-13T14:07:41.373Z,3.93
2022-11-13T14:11:42.424Z,4.23
2022-11-13T14:15:43.999Z,3.93
2022-11-13T14:19:54.123Z,4.07
2022-11-13T14:23:56.979Z,4.80
2022-11-13T14:27:58.119Z,4.57
2022-11-13T14:32:05.812Z,4.93
2022-11-13T14:36:07.811Z,4.63
2022-11-13T14:40:25.234Z,4.13
2022-11-13T14:44:32.145Z,4.67
2022-11-13T14:48:34.341Z,4.43
2022-11-13T14:52:35.483Z,4.77
2022-11-13T14:56:38.916Z,5.13
2022-11-13T15:00:40.351Z,5.10
2022-11-13T15:04:41.321Z,4.97
2022-11-13T15:08:44.468Z,4.87
2022-11-13T15:12:45.712Z,4.77
2022-11-13T15:16:49.256Z,4.50
2022-11-13T15:20:50.430Z,36.43
2022-11-13T15:24:51.444Z,16.07
2022-11-13T15:28:52.644Z,7.87
2022-11-13T15:32:54.243Z,9.40
2022-11-13T15:36:55.482Z,8.27
2022-11-13T15:40:56.954Z,8.30
2022-11-13T15:44:58.180Z,6.40
2022-11-13T15:48:59.378Z,7.10
2022-11-13T15:53:05.421Z,7.70
2022-11-13T15:57:07.409Z,11.27
2022-11-13T16:01:11.303Z,13.57
2022-11-13T16:05:12.538Z,9.33
2022-11-13T16:09:14.224Z,11.40
2022-11-13T16:13:15.333Z,15.63
2022-11-13T16:17:19.702Z,15.43
2022-11-13T16:21:21.809Z,13.13
2022-11-13T16:25:22.919Z,14.10
2022-11-13T16:29:24.676Z,12.67
2022-11-13T16:33:26.151Z,13.87
2022-11-13T16:37:27.676Z,32.10
2022-11-13T16:41:31.384Z,21.37
2022-11-13T16:45:32.632Z,22.27
2022-11-13T16:49:33.766Z,22.40
2022-11-13T16:53:34.935Z,22.57
2022-11-13T16:57:36.517Z,20.83
2022-11-13T17:01:38.050Z,16.03
2022-11-13T17:05:39.185Z,19.63
2022-11-13T17:09:42.423Z,31.57
2022-11-13T17:13:45.659Z,37.42
2022-11-13T17:17:47.299Z,43.10
2022-11-13T17:21:48.343Z,40.13
2022-11-13T17:25:49.472Z,47.70
2022-11-13T17:29:50.481Z,32.50
2022-11-13T17:33:53.307Z,32.37
2022-11-13T17:37:55.012Z,42.50
2022-11-13T17:41:55.944Z,45.57
2022-11-13T17:45:56.953Z,50.25
2022-11-13T17:50:02.466Z,46.30
2022-11-13T17:54:01.468Z,41.07
2022-11-13T17:58:03.142Z,35.57
2022-11-13T18:02:04.756Z,37.53
2022-11-13T18:06:09.097Z,38.20
2022-11-13T18:10:10.777Z,36.83
2022-11-13T18:14:12.601Z,53.23
2022-11-13T18:18:14.175Z,47.03
2022-11-13T18:22:16.074Z,41.53
2022-11-13T18:26:18.634Z,53.10
2022-11-13T18:30:20.526Z,58.67
2022-11-13T18:34:22.081Z,62.62
2022-11-13T18:38:23.157Z,48.93
2022-11-13T18:42:24.437Z,46.40
2022-11-13T18:46:25.550Z,36.33
2022-11-13T18:50:27.116Z,43.83
2022-11-13T18:54:28.404Z,47.83
2022-11-13T18:58:30.380Z,47.70
2022-11-13T19:02:31.432Z,44.83
2022-11-13T19:06:34.183Z,45.63
2022-11-13T19:10:35.401Z,44.80
2022-11-13T19:14:36.532Z,46.20
2022-11-13T19:18:39.003Z,46.30
2022-11-13T19:22:40.345Z,46.48
2022-11-13T19:26:42.743Z,43.23
2022-11-13T19:30:45.850Z,43.77
2022-11-13T19:34:47.040Z,43.03
2022-11-13T19:38:48.185Z,65.30
2022-11-13T19:42:49.252Z,54.67
2022-11-13T19:46:50.890Z,45.13
2022-11-13T19:50:53.106Z,55.33
2022-11-13T19:54:54.455Z,62.27
2022-11-13T19:58:57.892Z,64.20
2022-11-13T20:03:07.430Z,64.20
2022-11-13T20:07:08.651Z,56.53
2022-11-13T20:11:13.769Z,54.90
2022-11-13T20:15:16.247Z,51.43
2022-11-13T20:19:17.253Z,60.63
2022-11-13T20:23:18.694Z,63.70
2022-11-13T20:27:20.016Z,69.47
2022-11-13T20:31:24.793Z,75.33
2022-11-13T20:35:28.854Z,74.93
2022-11-13T20:39:31.677Z,66.77
2022-11-13T20:43:36.485Z,61.00
2022-11-13T20:47:38.659Z,62.57
2022-11-13T20:51:41.326Z,63.27
2022-11-13T20:55:45.618Z,59.13
2022-11-13T20:59:49.940Z,61.60
2022-11-13T21:03:53.511Z,53.47
2022-11-13T21:07:55.126Z,52.80
2022-11-13T21:12:00.639Z,45.63
2022-11-13T21:16:09.910Z,46.70
2022-11-13T21:20:13.025Z,40.87
2022-11-13T21:24:17.834Z,47.37
2022-11-13T21:28:23.762Z,46.77
2022-11-13T21:32:27.464Z,46.43
2022-11-13T21:36:32.896Z,38.13
2022-11-13T21:40:36.271Z,36.23
2022-11-13T21:44:42.914Z,38.20
2022-11-13T21:48:45.653Z,39.43
2022-11-13T21:52:48.809Z,37.73
2022-11-13T21:56:52.497Z,40.40
2022-11-13T22:00:56.055Z,39.23
2022-11-13T22:04:58.645Z,43.20
2022-11-13T22:09:03.167Z,38.10
2022-11-13T22:13:06.164Z,32.27
2022-11-13T22:17:10.057Z,29.97
2022-11-13T22:21:13.685Z,29.27
2022-11-13T22:25:17.325Z,27.47
2022-11-13T22:29:21.580Z,27.07
2022-11-13T22:33:29.759Z,30.47
2022-11-13T22:37:34.628Z,30.00
2022-11-13T22:41:37.955Z,54.27
2022-11-13T22:45:40.518Z,149.70
2022-11-13T22:49:43.316Z,88.57
2022-11-13T22:53:51.104Z,47.73
2022-11-13T22:57:53.732Z,30.63
2022-11-13T23:01:55.860Z,46.20
2022-11-13T23:05:57.303Z,47.57
2022-11-13T23:09:58.282Z,43.00
2022-11-13T23:14:02.174Z,38.10
2022-11-13T23:18:07.119Z,33.30
2022-11-13T23:22:06.597Z,24.17
2022-11-13T23:26:09.308Z,30.90
2022-11-13T23:30:11.623Z,35.30
2022-11-13T23:34:13.216Z,36.17
2022-11-13T23:38:14.428Z,33.10
2022-11-13T23:42:20.695Z,37.97
2022-11-13T23:46:18.575Z,34.57
2022-11-13T23:50:19.694Z,33.03
2022-11-13T23:54:21.321Z,27.67
2022-11-13T23:58:22.763Z,22.93
